sensor_id;sensor_type;location;lat;lon;timestamp;pressure;altitude;pressure_sealevel;temperature;humidity
84781;BME280;75011;50.086;19.886;2024-03-02T00:00:40;98306.50;;;5.45;86.27
84781;BME280;75011;50.086;19.886;2024-03-02T00:03:43;98307.22;;;5.40;86.68
84781;BME280;75011;50.086;19.886;2024-03-02T00:06:43;98307.47;;;5.39;86.79
84781;BME280;75011;50.086;19.886;2024-03-02T00:09:44;98304.56;;;5.40;86.39
84781;BME280;75011;50.086;19.886;2024-03-02T00:12:46;98307.47;;;5.39;86.95
84781;BME280;75011;50.086;19.886;2024-03-02T00:15:48;98300.97;;;5.35;87.17
84781;BME280;75011;50.086;19.886;2024-03-02T00:18:52;98304.09;;;5.32;86.96
84781;BME280;75011;50.086;19.886;2024-03-02T00:21:52;98307.47;;;5.27;86.93
84781;BME280;75011;50.086;19.886;2024-03-02T00:24:53;98300.91;;;5.18;87.14
84781;BME280;75011;50.086;19.886;2024-03-02T00:27:54;98307.50;;;5.16;87.35
84781;BME280;75011;50.086;19.886;2024-03-02T00:30:56;98305.97;;;5.20;87.78
84781;BME280;75011;50.086;19.886;2024-03-02T00:33:59;98311.09;;;5.21;87.66
84781;BME280;75011;50.086;19.886;2024-03-02T00:37:03;98304.72;;;5.22;87.74
84781;BME280;75011;50.086;19.886;2024-03-02T00:40:04;98299.75;;;5.26;87.48
84781;BME280;75011;50.086;19.886;2024-03-02T00:43:11;98299.50;;;5.27;86.96
84781;BME280;75011;50.086;19.886;2024-03-02T00:46:21;98298.00;;;5.31;87.36
84781;BME280;75011;50.086;19.886;2024-03-02T00:49:24;98285.00;;;5.35;87.05
84781;BME280;75011;50.086;19.886;2024-03-02T00:52:24;98281.63;;;5.39;87.46
84781;BME280;75011;50.086;19.886;2024-03-02T00:55:25;98288.56;;;5.40;87.12
84781;BME280;75011;50.086;19.886;2024-03-02T00:58:25;98282.22;;;5.41;87.28
84781;BME280;75011;50.086;19.886;2024-03-02T01:01:26;98280.59;;;5.40;86.89
84781;BME280;75011;50.086;19.886;2024-03-02T01:04:28;98276.78;;;5.36;87.30
84781;BME280;75011;50.086;19.886;2024-03-02T01:07:28;98278.84;;;5.34;87.18
84781;BME280;75011;50.086;19.886;2024-03-02T01:10:29;98278.94;;;5.39;86.97
84781;BME280;75011;50.086;19.886;2024-03-02T01:13:29;98269.47;;;5.43;87.27
84781;BME280;75011;50.086;19.886;2024-03-02T01:16:30;98268.75;;;5.48;87.53
84781;BME280;75011;50.086;19.886;2024-03-02T01:19:32;98263.75;;;5.51;86.73
84781;BME280;75011;50.086;19.886;2024-03-02T01:22:32;98260.94;;;5.58;87.33
84781;BME280;75011;50.086;19.886;2024-03-02T01:25:33;98261.28;;;5.61;86.92
84781;BME280;75011;50.086;19.886;2024-03-02T01:28:33;98266.16;;;5.64;86.55
84781;BME280;75011;50.086;19.886;2024-03-02T01:31:34;98253.28;;;5.61;86.98
84781;BME280;75011;50.086;19.886;2024-03-02T01:34:36;98257.09;;;5.65;86.95
84781;BME280;75011;50.086;19.886;2024-03-02T01:37:36;98246.91;;;5.62;86.58
84781;BME280;75011;50.086;19.886;2024-03-02T01:40:37;98249.56;;;5.62;86.75
84781;BME280;75011;50.086;19.886;2024-03-02T01:43:38;98249.56;;;5.62;86.89
84781;BME280;75011;50.086;19.886;2024-03-02T01:46:39;98248.78;;;5.62;86.47
84781;BME280;75011;50.086;19.886;2024-03-02T01:49:41;98245.78;;;5.58;86.51
84781;BME280;75011;50.086;19.886;2024-03-02T01:52:41;98245.78;;;5.58;86.53
84781;BME280;75011;50.086;19.886;2024-03-02T01:55:42;98255.28;;;5.54;86.70
84781;BME280;75011;50.086;19.886;2024-03-02T01:58:42;98250.91;;;5.48;87.04
84781;BME280;75011;50.086;19.886;2024-03-02T02:01:43;98244.41;;;5.44;87.25
84781;BME280;75011;50.086;19.886;2024-03-02T02:04:45;98259.47;;;5.50;87.36
84781;BME280;75011;50.086;19.886;2024-03-02T02:07:45;98249.28;;;5.47;86.86
84781;BME280;75011;50.086;19.886;2024-03-02T02:10:46;98247.69;;;5.46;87.20
84781;BME280;75011;50.086;19.886;2024-03-02T02:13:46;98249.84;;;5.49;86.85
84781;BME280;75011;50.086;19.886;2024-03-02T02:16:47;98246.41;;;5.49;87.08
84781;BME280;75011;50.086;19.886;2024-03-02T02:19:49;98232.16;;;5.43;86.68
84781;BME280;75011;50.086;19.886;2024-03-02T02:22:58;98238.06;;;5.45;87.22
84781;BME280;75011;50.086;19.886;2024-03-02T02:25:58;98245.22;;;5.45;87.39
84781;BME280;75011;50.086;19.886;2024-03-02T02:28:59;98238.44;;;5.37;86.80
84781;BME280;75011;50.086;19.886;2024-03-02T02:31:59;98244.56;;;5.38;87.46
84781;BME280;75011;50.086;19.886;2024-03-02T02:35:00;98233.56;;;5.34;87.58
84781;BME280;75011;50.086;19.886;2024-03-02T02:38:02;98239.38;;;5.31;86.48
84781;BME280;75011;50.086;19.886;2024-03-02T02:41:03;98235.81;;;5.26;86.61
84781;BME280;75011;50.086;19.886;2024-03-02T02:44:04;98235.00;;;5.25;86.91
84781;BME280;75011;50.086;19.886;2024-03-02T02:47:04;98237.09;;;5.23;87.37
84781;BME280;75011;50.086;19.886;2024-03-02T02:50:07;98234.66;;;5.22;87.48
84781;BME280;75011;50.086;19.886;2024-03-02T02:53:09;98239.19;;;5.21;87.38
84781;BME280;75011;50.086;19.886;2024-03-02T02:56:09;98233.50;;;5.18;87.21
84781;BME280;75011;50.086;19.886;2024-03-02T02:59:10;98230.03;;;5.17;87.27
84781;BME280;75011;50.086;19.886;2024-03-02T03:02:10;98228.09;;;5.13;87.41
84781;BME280;75011;50.086;19.886;2024-03-02T03:05:12;98231.22;;;5.09;87.25
84781;BME280;75011;50.086;19.886;2024-03-02T03:08:14;98230.28;;;5.04;87.18
84781;BME280;75011;50.086;19.886;2024-03-02T03:11:15;98236.34;;;4.99;87.62
84781;BME280;75011;50.086;19.886;2024-03-02T03:14:15;98235.19;;;4.95;87.23
84781;BME280;75011;50.086;19.886;2024-03-02T03:17:16;98233.22;;;4.91;87.54
84781;BME280;75011;50.086;19.886;2024-03-02T03:20:16;98231.25;;;4.86;87.50
84781;BME280;75011;50.086;19.886;2024-03-02T03:23:18;98227.66;;;4.81;87.86
84781;BME280;75011;50.086;19.886;2024-03-02T03:26:19;98245.28;;;4.82;87.54
84781;BME280;75011;50.086;19.886;2024-03-02T03:29:19;98231.41;;;4.80;87.93
84781;BME280;75011;50.086;19.886;2024-03-02T03:32:20;98237.75;;;4.79;88.38
84781;BME280;75011;50.086;19.886;2024-03-02T03:35:20;98223.06;;;4.76;87.96
84781;BME280;75011;50.086;19.886;2024-03-02T03:38:22;98223.88;;;4.77;88.14
84781;BME280;75011;50.086;19.886;2024-03-02T03:41:22;98231.41;;;4.80;88.00
84781;BME280;75011;50.086;19.886;2024-03-02T03:44:23;98223.97;;;4.82;87.84
84781;BME280;75011;50.086;19.886;2024-03-02T03:47:23;98219.47;;;4.82;88.22
84781;BME280;75011;50.086;19.886;2024-03-02T03:50:24;98219.22;;;4.84;88.25
84781;BME280;75011;50.086;19.886;2024-03-02T03:53:26;98215.19;;;4.81;88.08
84781;BME280;75011;50.086;19.886;2024-03-02T03:56:26;98223.41;;;4.80;87.84
84781;BME280;75011;50.086;19.886;2024-03-02T03:59:27;98221.78;;;4.79;87.83
84781;BME280;75011;50.086;19.886;2024-03-02T04:02:27;98212.16;;;4.78;88.00
84781;BME280;75011;50.086;19.886;2024-03-02T04:05:28;98205.25;;;4.77;88.09
84781;BME280;75011;50.086;19.886;2024-03-02T04:08:29;98212.06;;;4.73;87.81
84781;BME280;75011;50.086;19.886;2024-03-02T04:11:30;98227.44;;;4.71;87.88
84781;BME280;75011;50.086;19.886;2024-03-02T04:14:30;98219.03;;;4.62;88.59
84781;BME280;75011;50.086;19.886;2024-03-02T04:17:32;98220.31;;;4.60;88.01
84781;BME280;75011;50.086;19.886;2024-03-02T04:20:32;98220.53;;;4.58;88.09
84781;BME280;75011;50.086;19.886;2024-03-02T04:23:34;98214.53;;;4.51;88.19
84781;BME280;75011;50.086;19.886;2024-03-02T04:26:35;98214.75;;;4.50;88.36
84781;BME280;75011;50.086;19.886;2024-03-02T04:29:35;98232.56;;;4.49;88.30
84781;BME280;75011;50.086;19.886;2024-03-02T04:32:35;98223.31;;;4.52;88.41
84781;BME280;75011;50.086;19.886;2024-03-02T04:35:36;98235.00;;;4.51;88.36
84781;BME280;75011;50.086;19.886;2024-03-02T04:38:38;98231.50;;;4.50;88.92
84781;BME280;75011;50.086;19.886;2024-03-02T04:41:39;98219.47;;;4.47;88.69
84781;BME280;75011;50.086;19.886;2024-03-02T04:44:39;98223.41;;;4.45;88.57
84781;BME280;75011;50.086;19.886;2024-03-02T04:47:40;98228.06;;;4.50;88.43
84781;BME280;75011;50.086;19.886;2024-03-02T04:50:40;98220.09;;;4.50;88.30
84781;BME280;75011;50.086;19.886;2024-03-02T04:53:42;98216.03;;;4.47;88.66
84781;BME280;75011;50.086;19.886;2024-03-02T04:56:42;98223.41;;;4.45;88.51
84781;BME280;75011;50.086;19.886;2024-03-02T04:59:43;98224.56;;;4.37;88.68
84781;BME280;75011;50.086;19.886;2024-03-02T05:02:43;98227.22;;;4.37;88.95
84781;BME280;75011;50.086;19.886;2024-03-02T05:05:44;98216.25;;;4.34;88.53
84781;BME280;75011;50.086;19.886;2024-03-02T05:08:46;98228.19;;;4.31;88.66
84781;BME280;75011;50.086;19.886;2024-03-02T05:11:46;98237.63;;;4.27;88.74
84781;BME280;75011;50.086;19.886;2024-03-02T05:14:47;98246.44;;;4.28;88.83
84781;BME280;75011;50.086;19.886;2024-03-02T05:17:47;98239.97;;;4.24;88.87
84781;BME280;75011;50.086;19.886;2024-03-02T05:20:48;98250.47;;;4.19;89.21
84781;BME280;75011;50.086;19.886;2024-03-02T05:23:49;98263.78;;;4.19;89.21
84781;BME280;75011;50.086;19.886;2024-03-02T05:26:50;98268.47;;;4.17;89.25
84781;BME280;75011;50.086;19.886;2024-03-02T05:29:50;98271.63;;;4.14;89.57
84781;BME280;75011;50.086;19.886;2024-03-02T05:32:51;98278.91;;;4.18;89.00
84781;BME280;75011;50.086;19.886;2024-03-02T05:35:51;98271.97;;;4.17;89.58
84781;BME280;75011;50.086;19.886;2024-03-02T05:38:53;98278.66;;;4.20;89.55
84781;BME280;75011;50.086;19.886;2024-03-02T05:41:54;98279.25;;;4.22;89.69
84781;BME280;75011;50.086;19.886;2024-03-02T05:44:54;98272.66;;;4.24;89.12
84781;BME280;75011;50.086;19.886;2024-03-02T05:47:54;98277.84;;;4.19;89.46
84781;BME280;75011;50.086;19.886;2024-03-02T05:50:55;98274.41;;;4.19;89.24
84781;BME280;75011;50.086;19.886;2024-03-02T05:53:57;98282.97;;;4.21;89.63
84781;BME280;75011;50.086;19.886;2024-03-02T05:56:57;98270.47;;;4.21;89.36
84781;BME280;75011;50.086;19.886;2024-03-02T05:59:58;98274.41;;;4.30;89.25
84781;BME280;75011;50.086;19.886;2024-03-02T06:02:58;98264.84;;;4.41;89.50
84781;BME280;75011;50.086;19.886;2024-03-02T06:05:59;98273.28;;;4.50;88.99
84781;BME280;75011;50.086;19.886;2024-03-02T06:09:01;98274.56;;;4.59;89.40
84781;BME280;75011;50.086;19.886;2024-03-02T06:12:01;98276.88;;;4.67;88.65
84781;BME280;75011;50.086;19.886;2024-03-02T06:15:02;98277.56;;;4.74;89.25
84781;BME280;75011;50.086;19.886;2024-03-02T06:18:03;98283.00;;;4.79;88.38
84781;BME280;75011;50.086;19.886;2024-03-02T06:21:04;98279.28;;;4.91;88.89
84781;BME280;75011;50.086;19.886;2024-03-02T06:24:06;98281.44;;;5.06;88.37
84781;BME280;75011;50.086;19.886;2024-03-02T06:27:06;98282.72;;;5.15;88.59
84781;BME280;75011;50.086;19.886;2024-03-02T06:30:07;98289.41;;;5.29;88.60
84781;BME280;75011;50.086;19.886;2024-03-02T06:33:08;98294.38;;;5.37;88.59
84781;BME280;75011;50.086;19.886;2024-03-02T06:36:09;98292.72;;;5.48;88.21
84781;BME280;75011;50.086;19.886;2024-03-02T06:39:10;98285.63;;;5.53;88.39
84781;BME280;75011;50.086;19.886;2024-03-02T06:42:11;98286.41;;;5.65;88.03
84781;BME280;75011;50.086;19.886;2024-03-02T06:45:11;98292.75;;;5.76;88.42
84781;BME280;75011;50.086;19.886;2024-03-02T06:48:12;98289.91;;;5.83;88.35
84781;BME280;75011;50.086;19.886;2024-03-02T06:51:12;98289.91;;;5.83;87.66
84781;BME280;75011;50.086;19.886;2024-03-02T06:54:14;98292.25;;;5.91;88.10
84781;BME280;75011;50.086;19.886;2024-03-02T06:57:15;98298.56;;;6.01;87.43
84781;BME280;75011;50.086;19.886;2024-03-02T07:00:16;98291.81;;;6.10;87.72
84781;BME280;75011;50.086;19.886;2024-03-02T07:03:16;98289.31;;;6.20;87.53
84781;BME280;75011;50.086;19.886;2024-03-02T07:06:17;98291.59;;;6.28;87.27
84781;BME280;75011;50.086;19.886;2024-03-02T07:09:19;98291.97;;;6.37;87.46
84781;BME280;75011;50.086;19.886;2024-03-02T07:12:19;98291.34;;;6.47;86.99
84781;BME280;75011;50.086;19.886;2024-03-02T07:15:20;98287.63;;;6.48;87.34
84781;BME280;75011;50.086;19.886;2024-03-02T07:18:20;98296.13;;;6.61;86.60
84781;BME280;75011;50.086;19.886;2024-03-02T07:21:20;98296.84;;;6.73;86.43
84781;BME280;75011;50.086;19.886;2024-03-02T07:24:22;98296.50;;;6.86;86.17
84781;BME280;75011;50.086;19.886;2024-03-02T07:27:23;98299.03;;;7.15;86.07
84781;BME280;75011;50.086;19.886;2024-03-02T07:30:23;98300.06;;;7.30;85.52
84781;BME280;75011;50.086;19.886;2024-03-02T07:33:24;98303.34;;;7.37;85.24
84781;BME280;75011;50.086;19.886;2024-03-02T07:36:24;98315.28;;;7.51;85.03
84781;BME280;75011;50.086;19.886;2024-03-02T07:39:26;98317.22;;;7.56;84.87
84781;BME280;75011;50.086;19.886;2024-03-02T07:42:27;98311.72;;;7.68;84.61
84781;BME280;75011;50.086;19.886;2024-03-02T07:45:28;98293.88;;;7.73;84.56
84781;BME280;75011;50.086;19.886;2024-03-02T07:48:28;98304.16;;;7.81;83.66
84781;BME280;75011;50.086;19.886;2024-03-02T07:51:29;98308.28;;;7.94;83.51
84781;BME280;75011;50.086;19.886;2024-03-02T07:54:30;98314.25;;;8.01;83.38
84781;BME280;75011;50.086;19.886;2024-03-02T07:57:31;98326.88;;;8.05;83.79
84781;BME280;75011;50.086;19.886;2024-03-02T08:00:32;98329.03;;;8.08;83.26
84781;BME280;75011;50.086;19.886;2024-03-02T08:03:33;98324.59;;;8.19;83.06
84781;BME280;75011;50.086;19.886;2024-03-02T08:06:33;98328.72;;;8.27;82.85
84781;BME280;75011;50.086;19.886;2024-03-02T08:09:35;98327.94;;;8.31;82.58
84781;BME280;75011;50.086;19.886;2024-03-02T08:12:36;98322.47;;;8.43;81.71
84781;BME280;75011;50.086;19.886;2024-03-02T08:15:36;98320.63;;;8.48;82.15
84781;BME280;75011;50.086;19.886;2024-03-02T08:18:36;98315.09;;;8.60;81.05
84781;BME280;75011;50.086;19.886;2024-03-02T08:21:37;98316.53;;;8.72;80.87
84781;BME280;75011;50.086;19.886;2024-03-02T08:24:39;98315.13;;;8.65;80.55
84781;BME280;75011;50.086;19.886;2024-03-02T08:27:40;98313.59;;;8.74;80.35
84781;BME280;75011;50.086;19.886;2024-03-02T08:30:40;98319.31;;;8.88;79.88
84781;BME280;75011;50.086;19.886;2024-03-02T08:33:41;98308.16;;;9.01;80.06
84781;BME280;75011;50.086;19.886;2024-03-02T08:36:41;98317.91;;;9.12;79.83
84781;BME280;75011;50.086;19.886;2024-03-02T08:39:44;98326.50;;;9.19;78.77
84781;BME280;75011;50.086;19.886;2024-03-02T08:42:45;98327.34;;;9.24;79.14
84781;BME280;75011;50.086;19.886;2024-03-02T08:45:46;98342.53;;;9.09;78.82
84781;BME280;75011;50.086;19.886;2024-03-02T08:48:46;98335.38;;;9.24;78.94
84781;BME280;75011;50.086;19.886;2024-03-02T08:51:47;98337.53;;;9.22;78.16
84781;BME280;75011;50.086;19.886;2024-03-02T08:54:49;98339.19;;;9.33;78.33
84781;BME280;75011;50.086;19.886;2024-03-02T08:57:49;98335.19;;;9.36;78.87
84781;BME280;75011;50.086;19.886;2024-03-02T09:00:50;98344.63;;;9.48;77.38
84781;BME280;75011;50.086;19.886;2024-03-02T09:03:50;98338.25;;;9.60;77.69
84781;BME280;75011;50.086;19.886;2024-03-02T09:06:51;98340.47;;;9.73;77.20
84781;BME280;75011;50.086;19.886;2024-03-02T09:09:52;98343.75;;;9.90;75.90
84781;BME280;75011;50.086;19.886;2024-03-02T09:12:53;98342.44;;;10.02;75.64
84781;BME280;75011;50.086;19.886;2024-03-02T09:15:53;98341.59;;;9.92;75.67
84781;BME280;75011;50.086;19.886;2024-03-02T09:18:54;98348.78;;;9.76;75.61
84781;BME280;75011;50.086;19.886;2024-03-02T09:21:54;98347.44;;;9.79;76.44
84781;BME280;75011;50.086;19.886;2024-03-02T09:24:56;98354.47;;;9.90;75.85
84781;BME280;75011;50.086;19.886;2024-03-02T09:27:57;98357.94;;;9.80;76.29
84781;BME280;75011;50.086;19.886;2024-03-02T09:30:57;98358.50;;;9.87;75.39
84781;BME280;75011;50.086;19.886;2024-03-02T09:33:58;98360.16;;;10.03;75.49
84781;BME280;75011;50.086;19.886;2024-03-02T09:36:58;98359.94;;;10.15;75.45
84781;BME280;75011;50.086;19.886;2024-03-02T09:40:00;98363.47;;;10.26;74.10
84781;BME280;75011;50.086;19.886;2024-03-02T09:43:01;98367.53;;;10.33;74.45
84781;BME280;75011;50.086;19.886;2024-03-02T09:46:02;98376.13;;;10.35;73.81
84781;BME280;75011;50.086;19.886;2024-03-02T09:49:03;98380.13;;;10.33;74.54
84781;BME280;75011;50.086;19.886;2024-03-02T09:52:04;98375.84;;;10.27;73.89
84781;BME280;75011;50.086;19.886;2024-03-02T09:55:08;98380.94;;;10.28;74.95
84781;BME280;75011;50.086;19.886;2024-03-02T09:58:08;98379.38;;;10.42;74.24
84781;BME280;75011;50.086;19.886;2024-03-02T10:01:09;98381.28;;;10.57;74.34
84781;BME280;75011;50.086;19.886;2024-03-02T10:04:10;98378.31;;;10.63;73.69
84781;BME280;75011;50.086;19.886;2024-03-02T10:07:13;98377.75;;;10.51;74.04
84781;BME280;75011;50.086;19.886;2024-03-02T10:10:16;98378.06;;;10.55;74.35
84781;BME280;75011;50.086;19.886;2024-03-02T10:13:16;98379.94;;;10.74;73.94
84781;BME280;75011;50.086;19.886;2024-03-02T10:16:17;98377.78;;;10.71;73.26
84781;BME280;75011;50.086;19.886;2024-03-02T10:19:18;98378.31;;;10.73;72.87
84781;BME280;75011;50.086;19.886;2024-03-02T10:22:23;98375.38;;;10.70;73.63
84781;BME280;75011;50.086;19.886;2024-03-02T10:25:32;98369.19;;;10.74;73.48
84781;BME280;75011;50.086;19.886;2024-03-02T10:28:32;98377.50;;;10.68;73.96
84781;BME280;75011;50.086;19.886;2024-03-02T10:31:33;98372.16;;;10.93;72.54
84781;BME280;75011;50.086;19.886;2024-03-02T10:34:34;98374.03;;;10.98;72.92
84781;BME280;75011;50.086;19.886;2024-03-02T10:37:35;98368.13;;;10.96;72.46
84781;BME280;75011;50.086;19.886;2024-03-02T10:40:37;98375.09;;;11.07;72.08
84781;BME280;75011;50.086;19.886;2024-03-02T10:43:38;98362.72;;;11.26;71.61
84781;BME280;75011;50.086;19.886;2024-03-02T10:46:38;98358.66;;;11.44;71.31
84781;BME280;75011;50.086;19.886;2024-03-02T10:49:42;98360.47;;;11.58;70.79
84781;BME280;75011;50.086;19.886;2024-03-02T10:52:42;98354.03;;;11.64;69.84
84781;BME280;75011;50.086;19.886;2024-03-02T10:55:45;98355.66;;;11.50;70.50
84781;BME280;75011;50.086;19.886;2024-03-02T10:58:51;98353.72;;;11.76;69.87
84781;BME280;75011;50.086;19.886;2024-03-02T11:01:56;98350.16;;;12.01;69.26
84781;BME280;75011;50.086;19.886;2024-03-02T11:05:00;98351.38;;;12.23;68.96
84781;BME280;75011;50.086;19.886;2024-03-02T11:08:07;98348.56;;;12.43;68.29
84781;BME280;75011;50.086;19.886;2024-03-02T11:11:14;98348.16;;;12.21;68.37
84781;BME280;75011;50.086;19.886;2024-03-02T11:14:17;98339.16;;;12.36;68.58
84781;BME280;75011;50.086;19.886;2024-03-02T11:17:20;98342.00;;;12.54;67.66
84781;BME280;75011;50.086;19.886;2024-03-02T11:20:21;98333.56;;;12.66;67.33
84781;BME280;75011;50.086;19.886;2024-03-02T11:23:31;98340.28;;;13.02;66.30
84781;BME280;75011;50.086;19.886;2024-03-02T11:26:38;98335.47;;;13.28;64.90
84781;BME280;75011;50.086;19.886;2024-03-02T11:29:45;98331.69;;;13.53;65.53
84781;BME280;75011;50.086;19.886;2024-03-02T11:32:54;98338.09;;;14.04;63.45
84781;BME280;75011;50.086;19.886;2024-03-02T11:35:56;98331.97;;;14.41;62.73
84781;BME280;75011;50.086;19.886;2024-03-02T11:38:57;98323.16;;;14.30;62.72
84781;BME280;75011;50.086;19.886;2024-03-02T11:41:59;98336.13;;;14.28;62.23
84781;BME280;75011;50.086;19.886;2024-03-02T11:45:00;98335.41;;;14.04;63.89
84781;BME280;75011;50.086;19.886;2024-03-02T11:48:00;98331.13;;;13.79;64.12
84781;BME280;75011;50.086;19.886;2024-03-02T11:51:01;98332.84;;;13.47;65.71
84781;BME280;75011;50.086;19.886;2024-03-02T11:54:03;98329.19;;;13.61;64.76
84781;BME280;75011;50.086;19.886;2024-03-02T11:57:06;98328.13;;;13.57;64.25
84781;BME280;75011;50.086;19.886;2024-03-02T12:00:16;98317.47;;;13.71;64.89
84781;BME280;75011;50.086;19.886;2024-03-02T12:03:17;98315.66;;;13.85;63.54
84781;BME280;75011;50.086;19.886;2024-03-02T12:06:18;98322.00;;;14.18;62.79
84781;BME280;75011;50.086;19.886;2024-03-02T12:09:18;98329.56;;;13.97;63.39
84781;BME280;75011;50.086;19.886;2024-03-02T12:12:20;98329.09;;;13.90;63.41
84781;BME280;75011;50.086;19.886;2024-03-02T12:15:23;98314.25;;;13.87;63.21
84781;BME280;75011;50.086;19.886;2024-03-02T12:18:24;98325.78;;;13.74;62.60
84781;BME280;75011;50.086;19.886;2024-03-02T12:21:24;98331.19;;;13.51;63.99
84781;BME280;75011;50.086;19.886;2024-03-02T12:24:27;98338.84;;;13.44;64.13
84781;BME280;75011;50.086;19.886;2024-03-02T12:27:29;98330.91;;;13.29;65.02
84781;BME280;75011;50.086;19.886;2024-03-02T12:30:30;98316.91;;;13.21;64.69
84781;BME280;75011;50.086;19.886;2024-03-02T12:33:31;98329.28;;;13.28;65.10
84781;BME280;75011;50.086;19.886;2024-03-02T12:36:37;98331.88;;;13.38;64.51
84781;BME280;75011;50.086;19.886;2024-03-02T12:39:37;98331.75;;;13.48;64.78
84781;BME280;75011;50.086;19.886;2024-03-02T12:42:40;98325.72;;;13.56;63.82
84781;BME280;75011;50.086;19.886;2024-03-02T12:45:40;98337.56;;;13.60;63.91
84781;BME280;75011;50.086;19.886;2024-03-02T12:48:41;98341.94;;;13.56;64.09
84781;BME280;75011;50.086;19.886;2024-03-02T12:51:42;98330.72;;;13.44;63.70
84781;BME280;75011;50.086;19.886;2024-03-02T12:54:43;98325.91;;;13.41;64.33
84781;BME280;75011;50.086;19.886;2024-03-02T12:57:45;98321.88;;;13.38;64.51
84781;BME280;75011;50.086;19.886;2024-03-02T13:00:45;98313.47;;;13.40;64.58
84781;BME280;75011;50.086;19.886;2024-03-02T13:03:48;98319.09;;;13.91;63.80
84781;BME280;75011;50.086;19.886;2024-03-02T13:06:49;98316.50;;;14.60;61.87
84781;BME280;75011;50.086;19.886;2024-03-02T13:09:49;98314.44;;;15.35;59.95
84781;BME280;75011;50.086;19.886;2024-03-02T13:12:52;98313.56;;;15.67;58.89
84781;BME280;75011;50.086;19.886;2024-03-02T13:15:55;98313.34;;;16.04;57.49
84781;BME280;75011;50.086;19.886;2024-03-02T13:18:55;98309.81;;;16.53;56.21
84781;BME280;75011;50.086;19.886;2024-03-02T13:21:56;98311.41;;;16.76;55.24
84781;BME280;75011;50.086;19.886;2024-03-02T13:24:57;98321.78;;;16.74;54.93
84781;BME280;75011;50.086;19.886;2024-03-02T13:27:59;98310.31;;;16.42;55.61
84781;BME280;75011;50.086;19.886;2024-03-02T13:30:59;98313.94;;;16.01;56.62
84781;BME280;75011;50.086;19.886;2024-03-02T13:34:00;98308.41;;;15.93;56.89
84781;BME280;75011;50.086;19.886;2024-03-02T13:37:00;98306.19;;;16.22;55.90
84781;BME280;75011;50.086;19.886;2024-03-02T13:40:01;98308.91;;;16.44;55.49
84781;BME280;75011;50.086;19.886;2024-03-02T13:43:03;98310.00;;;16.57;54.98
84781;BME280;75011;50.086;19.886;2024-03-02T13:46:03;98304.28;;;16.45;55.05
84781;BME280;75011;50.086;19.886;2024-03-02T13:49:04;98306.13;;;16.35;54.98
84781;BME280;75011;50.086;19.886;2024-03-02T13:52:06;98311.03;;;15.98;55.99
84781;BME280;75011;50.086;19.886;2024-03-02T13:55:07;98315.97;;;15.55;57.30
84781;BME280;75011;50.086;19.886;2024-03-02T13:58:09;98315.31;;;15.44;57.21
84781;BME280;75011;50.086;19.886;2024-03-02T14:01:10;98313.66;;;15.48;56.90
84781;BME280;75011;50.086;19.886;2024-03-02T14:04:10;98309.50;;;15.37;57.14
84781;BME280;75011;50.086;19.886;2024-03-02T14:07:11;98305.28;;;15.18;57.95
84781;BME280;75011;50.086;19.886;2024-03-02T14:10:12;98306.09;;;15.32;57.88
84781;BME280;75011;50.086;19.886;2024-03-02T14:13:14;98307.22;;;15.71;56.63
84781;BME280;75011;50.086;19.886;2024-03-02T14:16:14;98292.00;;;15.76;56.56
84781;BME280;75011;50.086;19.886;2024-03-02T14:19:15;98304.50;;;15.99;56.41
84781;BME280;75011;50.086;19.886;2024-03-02T14:22:15;98310.31;;;16.19;55.70
84781;BME280;75011;50.086;19.886;2024-03-02T14:25:17;98306.22;;;15.95;55.64
84781;BME280;75011;50.086;19.886;2024-03-02T14:28:19;98308.44;;;15.52;57.25
84781;BME280;75011;50.086;19.886;2024-03-02T14:31:20;98311.38;;;15.23;58.05
84781;BME280;75011;50.086;19.886;2024-03-02T14:34:20;98313.00;;;15.24;58.15
84781;BME280;75011;50.086;19.886;2024-03-02T14:37:21;98313.13;;;15.00;58.36
84781;BME280;75011;50.086;19.886;2024-03-02T14:40:22;98317.56;;;14.96;58.75
84781;BME280;75011;50.086;19.886;2024-03-02T14:43:24;98310.78;;;14.80;58.53
84781;BME280;75011;50.086;19.886;2024-03-02T14:46:24;98311.41;;;14.59;59.53
84781;BME280;75011;50.086;19.886;2024-03-02T14:49:25;98309.38;;;14.51;59.03
84781;BME280;75011;50.086;19.886;2024-03-02T14:52:25;98312.94;;;14.27;60.35
84781;BME280;75011;50.086;19.886;2024-03-02T14:55:26;98302.53;;;14.16;60.60
84781;BME280;75011;50.086;19.886;2024-03-02T14:58:28;98305.69;;;14.04;60.89
84781;BME280;75011;50.086;19.886;2024-03-02T15:01:28;98302.00;;;13.95;60.25
84781;BME280;75011;50.086;19.886;2024-03-02T15:04:29;98302.44;;;13.83;60.85
84781;BME280;75011;50.086;19.886;2024-03-02T15:07:29;98300.81;;;13.82;60.86
84781;BME280;75011;50.086;19.886;2024-03-02T15:10:30;98292.97;;;13.86;60.95
84781;BME280;75011;50.086;19.886;2024-03-02T15:13:32;98285.59;;;13.92;60.40
84781;BME280;75011;50.086;19.886;2024-03-02T15:16:32;98285.66;;;13.86;61.51
84781;BME280;75011;50.086;19.886;2024-03-02T15:19:32;98290.56;;;13.84;61.28
84781;BME280;75011;50.086;19.886;2024-03-02T15:22:33;98285.44;;;13.83;61.00
84781;BME280;75011;50.086;19.886;2024-03-02T15:25:33;98287.84;;;13.84;60.89
84781;BME280;75011;50.086;19.886;2024-03-02T15:28:35;98282.72;;;13.83;61.18
84781;BME280;75011;50.086;19.886;2024-03-02T15:31:36;98293.75;;;13.86;61.56
84781;BME280;75011;50.086;19.886;2024-03-02T15:34:36;98292.44;;;13.84;61.82
84781;BME280;75011;50.086;19.886;2024-03-02T15:37:37;98284.41;;;13.79;61.49
84781;BME280;75011;50.086;19.886;2024-03-02T15:40:37;98275.47;;;13.60;61.72
84781;BME280;75011;50.086;19.886;2024-03-02T15:43:39;98286.31;;;13.55;62.28
84781;BME280;75011;50.086;19.886;2024-03-02T15:46:40;98291.31;;;13.43;62.14
84781;BME280;75011;50.086;19.886;2024-03-02T15:49:40;98287.66;;;13.34;62.36
84781;BME280;75011;50.086;19.886;2024-03-02T15:52:41;98286.41;;;13.21;63.19